Time;durP1;ratioP1;P1;durP2;ratioP2;P2;SDS_P1;SDS_P2;PMS_P1;PMS_P2;Temp;Humidity;BMP_temperature;BMP_pressure;BME280_temperature;BME280_humidity;BME280_pressure;Samples;Min_cycle;Max_cycle;Signal;HPM_P1;HPM_P2
2023/06/22 00:01:19;;;;;;;35.93;6.90;;;30.10;52.00;;;;;;5024061;28;20205;-75
2023/06/22 00:03:46;;;;;;;28.30;6.43;;;30.10;52.00;;;;;;5025073;28;20287;-67
2023/06/22 00:06:13;;;;;;;44.97;7.60;;;30.10;51.90;;;;;;5024207;28;20205;-72
2023/06/22 00:08:41;;;;;;;53.93;8.47;;;30.10;51.90;;;;;;5021691;28;20205;-70
2023/06/22 00:11:08;;;;;;;22.43;5.60;;;30.10;51.80;;;;;;5008338;28;20209;-63
2023/06/22 00:13:35;;;;;;;32.43;6.07;;;30.10;51.80;;;;;;5026895;28;20216;-63
2023/06/22 00:16:01;;;;;;;50.10;7.70;;;30.10;51.70;;;;;;5010373;28;20205;-63
2023/06/22 00:18:30;;;;;;;30.70;6.10;;;30.10;51.70;;;;;;5010379;28;20271;-63
2023/06/22 00:21:00;;;;;;;27.13;5.83;;;30.00;51.60;;;;;;5008610;28;20579;-63
2023/06/22 00:23:27;;;;;;;40.80;7.03;;;29.90;51.50;;;;;;5014992;28;20520;-66
2023/06/22 00:25:55;;;;;;;45.00;7.50;;;30.00;51.60;;;;;;5011048;28;20215;-63
2023/06/22 00:28:22;;;;;;;28.70;6.40;;;29.90;51.50;;;;;;5013756;28;20240;-63
2023/06/22 00:30:50;;;;;;;32.70;6.70;;;29.90;51.50;;;;;;5022082;28;20213;-63
2023/06/22 00:33:17;;;;;;;34.50;6.60;;;29.90;51.50;;;;;;5016933;28;20209;-64
2023/06/22 00:35:44;;;;;;;29.40;6.30;;;29.90;51.50;;;;;;5007970;28;20217;-63
2023/06/22 00:38:11;;;;;;;57.43;8.57;;;29.90;51.50;;;;;;5009930;28;20336;-64
2023/06/22 00:40:38;;;;;;;19.57;5.33;;;29.80;51.40;;;;;;5008392;28;20217;-66
2023/06/22 00:43:07;;;;;;;25.23;6.33;;;29.80;52.10;;;;;;5008059;28;20221;-63
2023/06/22 00:45:34;;;;;;;31.17;6.40;;;29.80;51.50;;;;;;5008750;28;20220;-64
2023/06/22 00:48:01;;;;;;;29.07;6.37;;;29.70;51.40;;;;;;5022997;28;20239;-63
2023/06/22 00:50:33;;;;;;;32.27;6.90;;;29.70;51.40;;;;;;5014246;28;20212;-63
2023/06/22 00:53:02;;;;;;;25.97;6.23;;;29.70;51.40;;;;;;5008663;28;20205;-64
2023/06/22 00:55:30;;;;;;;41.40;7.73;;;29.70;51.50;;;;;;5019389;28;20292;-63
2023/06/22 00:57:57;;;;;;;22.13;5.80;;;29.60;51.40;;;;;;5008420;28;20201;-69
2023/06/22 01:00:26;;;;;;;48.03;7.50;;;29.60;51.50;;;;;;5017883;28;20213;-65
2023/06/22 01:02:53;;;;;;;34.70;6.67;;;29.60;51.50;;;;;;5012602;28;20208;-63
2023/06/22 01:05:21;;;;;;;31.60;6.60;;;29.50;51.40;;;;;;5026225;28;20200;-65
2023/06/22 01:08:01;;;;;;;28.67;6.50;;;29.50;51.40;;;;;;5045254;28;20216;-63
2023/06/22 01:10:37;;;;;;;27.83;6.30;;;29.50;51.40;;;;;;5023892;28;20205;-70
2023/06/22 01:13:18;;;;;;;23.23;6.07;;;29.50;51.40;;;;;;5019204;28;20215;-63
2023/06/22 01:15:50;;;;;;;19.33;5.87;;;29.40;51.40;;;;;;5020407;28;20204;-63
2023/06/22 01:18:19;;;;;;;53.03;8.47;;;29.40;51.40;;;;;;5040445;28;20236;-63
2023/06/22 01:20:46;;;;;;;62.47;9.23;;;29.40;51.50;;;;;;5028722;28;20258;-71
2023/06/22 01:23:28;;;;;;;24.30;5.70;;;29.40;51.50;;;;;;5019375;28;20558;-67
2023/06/22 01:26:18;;;;;;;56.90;8.60;;;29.30;51.40;;;;;;5023769;28;20208;-63
2023/06/22 01:28:49;;;;;;;32.43;7.27;;;29.30;51.40;;;;;;5028701;28;20334;-63
2023/06/22 01:31:19;;;;;;;51.27;8.60;;;29.30;51.40;;;;;;5017287;28;20204;-68
2023/06/22 01:33:51;;;;;;;66.40;9.77;;;29.30;51.40;;;;;;5042081;28;20205;-67
2023/06/22 01:36:19;;;;;;;22.53;5.83;;;29.30;51.50;;;;;;5017902;28;20210;-65
2023/06/22 01:38:47;;;;;;;27.20;6.20;;;29.20;51.50;;;;;;5019640;28;20235;-63
2023/06/22 01:41:15;;;;;;;32.57;6.73;;;29.20;51.40;;;;;;5027983;28;20192;-73
2023/06/22 01:43:43;;;;;;;30.47;6.80;;;29.20;51.40;;;;;;5039356;28;20202;-63
2023/06/22 01:46:12;;;;;;;30.13;6.43;;;29.10;51.40;;;;;;5024747;28;20206;-73
2023/06/22 01:48:40;;;;;;;27.33;6.23;;;29.10;51.40;;;;;;5039934;28;21001;-64
2023/06/22 01:51:07;;;;;;;25.30;6.10;;;29.10;51.40;;;;;;5044852;28;20667;-64
2023/06/22 01:53:34;;;;;;;30.93;6.77;;;29.10;51.50;;;;;;5026543;28;20227;-72
2023/06/22 01:56:01;;;;;;;29.60;6.43;;;29.10;51.40;;;;;;5019794;28;20209;-73
2023/06/22 01:58:30;;;;;;;27.27;6.60;;;29.10;51.50;;;;;;5008309;28;20198;-63
2023/06/22 02:01:03;;;;;;;37.07;7.10;;;29.00;51.40;;;;;;5015281;28;20208;-70
2023/06/22 02:03:36;;;;;;;32.03;6.70;;;29.00;52.00;;;;;;5032237;28;20192;-65
2023/06/22 02:06:07;;;;;;;24.67;6.13;;;29.00;51.40;;;;;;5032484;28;20238;-67
2023/06/22 02:08:41;;;;;;;39.00;6.97;;;29.00;51.50;;;;;;5040980;28;20223;-64
2023/06/22 02:11:09;;;;;;;27.97;6.27;;;29.00;51.50;;;;;;5033744;28;20196;-64
2023/06/22 02:13:37;;;;;;;32.67;7.03;;;29.00;51.50;;;;;;5015748;28;20983;-65
2023/06/22 02:16:05;;;;;;;21.83;5.67;;;28.90;51.40;;;;;;5022173;28;20733;-64
2023/06/22 02:18:35;;;;;;;36.60;7.10;;;28.90;51.40;;;;;;5025492;28;20194;-69
2023/06/22 02:21:02;;;;;;;41.37;7.50;;;28.90;51.40;;;;;;5018513;28;20204;-63
2023/06/22 02:23:29;;;;;;;26.23;6.13;;;28.80;51.40;;;;;;5020808;28;20691;-68
2023/06/22 02:25:56;;;;;;;48.13;8.37;;;28.80;51.40;;;;;;5012869;28;20197;-64
2023/06/22 02:28:22;;;;;;;20.83;5.47;;;28.80;51.40;;;;;;5020134;28;20229;-68
2023/06/22 02:30:49;;;;;;;42.87;7.67;;;28.80;51.40;;;;;;5033466;28;20642;-67
2023/06/22 02:33:16;;;;;;;28.60;6.37;;;28.80;51.50;;;;;;5034557;28;20190;-71
2023/06/22 02:35:48;;;;;;;35.17;7.10;;;28.80;51.50;;;;;;5018912;28;20217;-73
2023/06/22 02:38:17;;;;;;;27.00;6.50;;;28.80;51.50;;;;;;5019998;28;20300;-71
2023/06/22 02:40:44;;;;;;;41.80;7.50;;;28.70;51.40;;;;;;5008854;28;20201;-65
2023/06/22 02:43:11;;;;;;;20.93;5.73;;;28.70;51.40;;;;;;5031292;28;20206;-72
2023/06/22 02:45:38;;;;;;;32.90;7.37;;;28.70;51.40;;;;;;5029820;28;20208;-71
2023/06/22 02:48:05;;;;;;;42.23;7.50;;;28.70;51.40;;;;;;5032900;28;20237;-65
2023/06/22 02:50:32;;;;;;;49.53;8.70;;;28.70;51.40;;;;;;5033220;28;20201;-72
2023/06/22 02:53:01;;;;;;;20.00;6.10;;;28.70;51.50;;;;;;5015365;28;20665;-62
2023/06/22 02:55:28;;;;;;;30.07;6.93;;;28.70;51.50;;;;;;5017724;28;20205;-63
2023/06/22 02:57:55;;;;;;;45.47;7.90;;;28.60;51.40;;;;;;5006595;28;20225;-63
2023/06/22 03:00:22;;;;;;;58.67;9.47;;;28.60;51.40;;;;;;5015440;28;20209;-64
2023/06/22 03:02:49;;;;;;;50.37;8.80;;;28.60;51.40;;;;;;5021624;28;20209;-64
2023/06/22 03:05:17;;;;;;;39.80;7.47;;;28.60;51.50;;;;;;5020587;28;20206;-64
2023/06/22 03:07:45;;;;;;;55.63;9.17;;;28.60;51.50;;;;;;5014150;28;20233;-64
2023/06/22 03:10:14;;;;;;;29.53;6.90;;;28.50;51.40;;;;;;5007312;28;20196;-63
2023/06/22 03:12:42;;;;;;;35.40;7.60;;;28.50;51.40;;;;;;5008100;28;20197;-63
2023/06/22 03:15:10;;;;;;;36.40;7.37;;;28.50;51.40;;;;;;5006350;28;20205;-63
2023/06/22 03:17:40;;;;;;;26.47;6.73;;;28.50;51.40;;;;;;5013771;28;20202;-63
2023/06/22 03:20:10;;;;;;;34.70;7.10;;;28.50;52.00;;;;;;5020831;28;20231;-63
2023/06/22 03:22:37;;;;;;;28.90;6.23;;;28.50;51.40;;;;;;5023104;28;20633;-63
2023/06/22 03:25:09;;;;;;;28.23;6.63;;;28.50;51.40;;;;;;5016842;28;20232;-63
2023/06/22 03:27:38;;;;;;;34.30;7.23;;;28.40;51.30;;;;;;5027568;28;20201;-64
2023/06/22 03:30:05;;;;;;;21.47;5.87;;;28.40;51.30;;;;;;5030396;28;20214;-65
2023/06/22 03:32:32;;;;;;;22.73;5.87;;;28.40;51.40;;;;;;5037557;28;20226;-66
2023/06/22 03:34:59;;;;;;;30.10;6.73;;;28.40;51.40;;;;;;5030413;28;20227;-63
2023/06/22 03:37:26;;;;;;;29.53;7.07;;;28.40;51.40;;;;;;5044847;28;20274;-63
2023/06/22 03:39:53;;;;;;;26.53;6.17;;;28.40;51.40;;;;;;5015056;28;20745;-63
2023/06/22 03:42:20;;;;;;;27.80;6.27;;;28.40;51.40;;;;;;5040518;28;20210;-63
2023/06/22 03:44:49;;;;;;;35.90;7.27;;;28.40;51.40;;;;;;5042968;28;20609;-71
2023/06/22 03:47:16;;;;;;;30.80;6.90;;;28.40;51.40;;;;;;5029432;28;20206;-64
2023/06/22 03:49:45;;;;;;;28.90;6.43;;;28.30;51.40;;;;;;5040790;28;20652;-63
2023/06/22 03:52:12;;;;;;;30.97;7.00;;;28.40;51.50;;;;;;5042952;28;20223;-66
2023/06/22 03:54:38;;;;;;;30.87;7.03;;;28.30;51.40;;;;;;5048456;28;20652;-63
2023/06/22 03:57:06;;;;;;;25.37;6.70;;;28.30;51.40;;;;;;5049917;28;20205;-63
2023/06/22 03:59:33;;;;;;;27.23;6.47;;;28.30;51.40;;;;;;5041959;28;20208;-63
2023/06/22 04:02:01;;;;;;;41.37;7.57;;;28.30;51.40;;;;;;5035792;28;20198;-64
2023/06/22 04:04:28;;;;;;;24.40;5.90;;;28.30;51.40;;;;;;5038917;28;20683;-63
2023/06/22 04:06:55;;;;;;;24.70;6.43;;;28.30;51.50;;;;;;5049770;28;20250;-64
2023/06/22 04:09:22;;;;;;;32.37;6.97;;;28.20;51.40;;;;;;5033215;28;20911;-64
2023/06/22 04:11:49;;;;;;;31.13;7.00;;;28.20;51.40;;;;;;5029646;28;20213;-64
2023/06/22 04:14:16;;;;;;;25.83;5.90;;;28.20;51.40;;;;;;5022292;28;20200;-63
2023/06/22 04:16:43;;;;;;;43.70;7.90;;;28.20;51.40;;;;;;5021405;28;20197;-63
2023/06/22 04:19:16;;;;;;;33.23;6.67;;;28.20;51.40;;;;;;5024357;28;20567;-67
2023/06/22 04:21:43;;;;;;;27.40;5.97;;;28.20;51.40;;;;;;5028953;28;20310;-63
2023/06/22 04:24:09;;;;;;;34.03;7.60;;;28.20;51.40;;;;;;5012056;28;20230;-65
2023/06/22 04:26:37;;;;;;;37.43;7.47;;;28.10;51.40;;;;;;5012654;28;20204;-63
2023/06/22 04:29:05;;;;;;;24.23;5.77;;;28.10;51.40;;;;;;5026637;28;20243;-65
2023/06/22 04:31:36;;;;;;;38.00;7.30;;;28.10;51.50;;;;;;5020605;28;20201;-63
2023/06/22 04:34:06;;;;;;;57.37;9.47;;;28.10;51.50;;;;;;5009070;28;20237;-63
2023/06/22 04:36:38;;;;;;;33.50;7.17;;;28.10;51.50;;;;;;5008598;28;20917;-63
2023/06/22 04:39:06;;;;;;;37.70;7.10;;;28.10;51.50;;;;;;5010851;28;20445;-63
2023/06/22 04:41:41;;;;;;;47.00;7.70;;;28.10;51.50;;;;;;5026027;28;20262;-63
2023/06/22 04:44:10;;;;;;;32.40;6.87;;;28.10;51.50;;;;;;5012325;28;20197;-63
2023/06/22 04:46:38;;;;;;;65.90;9.43;;;28.10;51.50;;;;;;5027819;28;20208;-62
2023/06/22 04:49:09;;;;;;;42.53;7.77;;;28.10;51.50;;;;;;5026521;28;20228;-64
2023/06/22 04:51:41;;;;;;;39.77;7.13;;;28.10;51.60;;;;;;5023914;28;20212;-62
2023/06/22 04:54:08;;;;;;;50.83;8.37;;;28.10;51.60;;;;;;5008822;28;20665;-67
2023/06/22 04:56:35;;;;;;;31.13;7.23;;;28.10;51.60;;;;;;5008287;28;20212;-67
2023/06/22 04:59:02;;;;;;;35.10;7.27;;;28.10;51.60;;;;;;5016327;28;20540;-65
2023/06/22 05:01:30;;;;;;;62.67;9.73;;;28.10;51.70;;;;;;5031034;28;20778;-62
2023/06/22 05:04:00;;;;;;;31.40;6.87;;;28.10;51.70;;;;;;5019738;28;20204;-62
2023/06/22 05:06:28;;;;;;;25.30;6.13;;;28.10;51.70;;;;;;5021028;28;20671;-62
2023/06/22 05:08:58;;;;;;;43.27;7.67;;;28.10;51.70;;;;;;5019636;28;20562;-66
2023/06/22 05:11:25;;;;;;;35.37;7.43;;;28.10;51.70;;;;;;5033039;28;21069;-70
2023/06/22 05:13:52;;;;;;;39.77;7.57;;;28.10;51.70;;;;;;5029894;28;20212;-65
2023/06/22 05:16:23;;;;;;;34.83;6.47;;;28.10;51.70;;;;;;5022169;28;20211;-63
2023/06/22 05:18:53;;;;;;;44.53;7.87;;;28.10;51.80;;;;;;5008135;28;20205;-65
2023/06/22 05:21:22;;;;;;;26.73;6.10;;;28.10;51.80;;;;;;5011325;28;20212;-67
2023/06/22 05:23:49;;;;;;;32.17;6.53;;;28.10;51.90;;;;;;5007458;28;20236;-67
2023/06/22 05:26:17;;;;;;;39.80;6.83;;;28.10;51.80;;;;;;5008516;28;20194;-65
2023/06/22 05:28:46;;;;;;;36.23;7.10;;;28.10;51.90;;;;;;5022671;28;20228;-63
2023/06/22 05:31:13;;;;;;;24.83;5.67;;;28.10;51.90;;;;;;5006649;28;20205;-64
2023/06/22 05:33:40;;;;;;;34.30;6.67;;;28.10;51.90;;;;;;5018032;28;20224;-67
2023/06/22 05:36:07;;;;;;;36.00;6.87;;;28.10;51.80;;;;;;5025331;28;20418;-62
2023/06/22 05:38:34;;;;;;;28.60;6.20;;;28.10;51.80;;;;;;5028178;28;20196;-68
2023/06/22 05:41:01;;;;;;;40.70;7.40;;;28.10;51.90;;;;;;5027785;28;20211;-65
2023/06/22 05:43:29;;;;;;;23.73;6.03;;;28.20;52.00;;;;;;5028013;28;20205;-73
2023/06/22 05:45:56;;;;;;;26.90;6.53;;;28.10;51.90;;;;;;5027944;28;20213;-61
2023/06/22 05:48:23;;;;;;;30.57;6.70;;;28.20;52.00;;;;;;5027964;28;20228;-63
2023/06/22 05:50:53;;;;;;;29.60;6.70;;;28.20;51.90;;;;;;5027620;28;20197;-72
2023/06/22 05:53:20;;;;;;;34.23;7.17;;;28.20;52.00;;;;;;5027950;28;20196;-63
2023/06/22 05:55:47;;;;;;;28.60;6.50;;;28.20;52.00;;;;;;5027623;28;20200;-66
2023/06/22 05:58:14;;;;;;;36.73;6.90;;;28.20;52.00;;;;;;5028209;28;20240;-66
2023/06/22 06:00:43;;;;;;;18.97;5.30;;;28.20;52.00;;;;;;5028061;28;20189;-62
2023/06/22 06:03:10;;;;;;;31.37;6.97;;;28.20;52.00;;;;;;5028211;28;20193;-64
2023/06/22 06:05:37;;;;;;;32.70;6.73;;;28.30;52.10;;;;;;5026484;28;20201;-65
2023/06/22 06:08:06;;;;;;;30.03;7.23;;;28.30;52.70;;;;;;5026586;28;20212;-62
2023/06/22 06:10:34;;;;;;;31.63;6.73;;;28.30;52.10;;;;;;5027797;28;20224;-61
2023/06/22 06:13:04;;;;;;;35.73;7.23;;;28.30;52.10;;;;;;5027705;28;20193;-64
2023/06/22 06:15:30;;;;;;;25.77;6.27;;;28.20;52.00;;;;;;5027333;28;20205;-64
2023/06/22 06:17:59;;;;;;;27.80;6.40;;;28.30;52.10;;;;;;5023617;28;20200;-61
2023/06/22 06:20:28;;;;;;;34.97;7.13;;;28.30;52.70;;;;;;5007583;28;20312;-61
2023/06/22 06:22:55;;;;;;;31.70;7.10;;;28.30;52.10;;;;;;5017080;28;20264;-66
2023/06/22 06:25:22;;;;;;;39.47;7.53;;;28.30;52.10;;;;;;5009729;28;20251;-61
2023/06/22 06:27:53;;;;;;;131.93;15.27;;;28.40;52.20;;;;;;5022471;28;20205;-67
2023/06/22 06:30:21;;;;;;;34.27;6.87;;;28.40;52.20;;;;;;5011545;28;20233;-61
2023/06/22 06:32:48;;;;;;;32.13;6.70;;;28.40;52.20;;;;;;5022159;28;20211;-62
2023/06/22 06:35:17;;;;;;;24.97;6.33;;;28.40;52.20;;;;;;5008845;28;20219;-61
2023/06/22 06:37:45;;;;;;;32.23;6.80;;;28.40;52.20;;;;;;5009480;28;20201;-61
2023/06/22 06:40:13;;;;;;;22.07;5.87;;;28.40;52.20;;;;;;5015604;28;20211;-61
2023/06/22 06:42:44;;;;;;;43.10;7.83;;;28.40;52.20;;;;;;5018436;28;20387;-61
2023/06/22 06:45:12;;;;;;;27.70;6.27;;;28.40;52.20;;;;;;5041570;28;20211;-61
2023/06/22 06:47:39;;;;;;;31.30;6.73;;;28.40;52.20;;;;;;5026511;28;20205;-61
2023/06/22 06:50:07;;;;;;;24.50;6.00;;;28.50;52.20;;;;;;5013421;28;20231;-66
2023/06/22 06:52:36;;;;;;;38.40;7.33;;;28.50;52.20;;;;;;5010119;28;20198;-62
2023/06/22 06:55:04;;;;;;;30.20;6.87;;;28.50;52.20;;;;;;5011492;28;20244;-62
2023/06/22 06:57:32;;;;;;;34.93;6.73;;;28.50;52.20;;;;;;5010924;28;20212;-62
2023/06/22 06:59:59;;;;;;;33.13;7.13;;;28.50;52.20;;;;;;5011241;28;20209;-67
2023/06/22 07:02:28;;;;;;;20.30;5.73;;;28.50;52.20;;;;;;5019592;28;20208;-67
2023/06/22 07:04:56;;;;;;;27.50;6.47;;;28.50;52.20;;;;;;5012011;28;20534;-64
2023/06/22 07:07:23;;;;;;;29.87;6.67;;;28.60;52.30;;;;;;5027218;28;20208;-67
2023/06/22 07:09:51;;;;;;;27.93;6.13;;;28.60;52.30;;;;;;5010930;28;20229;-62
2023/06/22 07:12:18;;;;;;;32.57;7.27;;;28.60;52.30;;;;;;5010913;28;20205;-61
2023/06/22 07:14:44;;;;;;;30.47;6.77;;;28.60;52.30;;;;;;5020860;28;20572;-60
2023/06/22 07:17:11;;;;;;;31.60;6.90;;;28.60;52.30;;;;;;5011038;28;20205;-61
2023/06/22 07:19:38;;;;;;;28.43;6.80;;;28.60;52.40;;;;;;5010954;28;20216;-66
2023/06/22 07:22:05;;;;;;;43.37;8.30;;;28.70;52.40;;;;;;5013342;28;20624;-61
2023/06/22 07:24:33;;;;;;;27.27;6.40;;;28.70;52.40;;;;;;5028061;28;20234;-72
2023/06/22 07:27:02;;;;;;;24.70;6.50;;;28.70;52.40;;;;;;5043830;28;20205;-65
2023/06/22 07:29:29;;;;;;;38.20;7.40;;;28.70;52.40;;;;;;5015855;28;20231;-61
2023/06/22 07:31:57;;;;;;;29.20;6.90;;;28.70;52.40;;;;;;5020914;28;20228;-62
2023/06/22 07:34:23;;;;;;;27.80;7.10;;;28.70;52.50;;;;;;5010881;28;20209;-61
2023/06/22 07:36:51;;;;;;;35.67;7.73;;;28.70;52.40;;;;;;5014385;28;20213;-61
2023/06/22 07:39:17;;;;;;;28.10;6.67;;;28.80;52.70;;;;;;5024421;28;20213;-61
2023/06/22 07:41:44;;;;;;;34.63;6.90;;;28.80;52.50;;;;;;5029379;28;20201;-61
2023/06/22 07:44:13;;;;;;;24.00;6.30;;;28.80;52.50;;;;;;5013742;28;20331;-61
2023/06/22 07:46:39;;;;;;;34.17;7.13;;;28.80;52.50;;;;;;5010551;28;20201;-62
2023/06/22 07:49:08;;;;;;;30.00;6.67;;;28.80;52.50;;;;;;5010178;28;20217;-62
2023/06/22 07:51:34;;;;;;;30.23;7.07;;;28.80;52.50;;;;;;5027514;28;20276;-61
2023/06/22 07:54:01;;;;;;;45.17;8.17;;;28.90;52.60;;;;;;5019118;28;20643;-63
2023/06/22 07:56:28;;;;;;;33.53;7.77;;;28.80;52.60;;;;;;5009763;28;20235;-62
2023/06/22 07:58:58;;;;;;;38.93;8.27;;;28.90;52.60;;;;;;5011717;28;20201;-61
2023/06/22 08:01:26;;;;;;;25.03;7.07;;;28.90;52.60;;;;;;5022531;28;20657;-61
2023/06/22 08:03:53;;;;;;;35.93;7.80;;;28.90;52.60;;;;;;5026869;28;20204;-62
2023/06/22 08:06:19;;;;;;;34.57;7.20;;;29.00;53.30;;;;;;5027134;28;20196;-63
2023/06/22 08:08:49;;;;;;;30.87;7.67;;;29.00;52.70;;;;;;5025598;28;20195;-61
2023/06/22 08:11:16;;;;;;;32.43;7.50;;;29.00;52.60;;;;;;5029916;28;20201;-61
2023/06/22 08:13:43;;;;;;;31.53;7.50;;;29.00;52.70;;;;;;5020524;28;20203;-63
2023/06/22 08:16:10;;;;;;;34.67;7.40;;;29.10;52.70;;;;;;5011994;28;20196;-61
2023/06/22 08:18:38;;;;;;;29.53;7.17;;;29.10;52.70;;;;;;5020077;28;20930;-63
2023/06/22 08:21:05;;;;;;;46.87;8.57;;;29.10;52.70;;;;;;5037435;28;20661;-67
2023/06/22 08:23:32;;;;;;;36.77;7.93;;;29.10;52.70;;;;;;5010062;28;20235;-63
2023/06/22 08:25:59;;;;;;;59.67;9.90;;;29.10;52.70;;;;;;5022068;28;20202;-70
2023/06/22 08:28:26;;;;;;;53.27;9.93;;;29.10;52.70;;;;;;5045184;28;20203;-64
2023/06/22 08:30:53;;;;;;;24.57;7.27;;;29.20;52.80;;;;;;5037534;28;20238;-63
2023/06/22 08:33:19;;;;;;;31.27;7.93;;;29.10;52.70;;;;;;5020898;28;20216;-70
2023/06/22 08:35:48;;;;;;;37.67;10.33;;;29.20;52.70;;;;;;5025371;28;20219;-70
2023/06/22 08:38:17;;;;;;;50.43;11.40;;;29.20;52.90;;;;;;5036786;28;20196;-68
2023/06/22 08:40:44;;;;;;;34.93;9.80;;;29.20;52.80;;;;;;5024296;28;20304;-69
2023/06/22 08:43:11;;;;;;;29.00;8.60;;;29.20;52.70;;;;;;5020250;28;20208;-71
2023/06/22 08:45:38;;;;;;;29.73;8.53;;;29.30;52.70;;;;;;5029480;28;20209;-65
2023/06/22 08:48:05;;;;;;;31.33;8.33;;;29.20;52.70;;;;;;5016666;28;20205;-72
2023/06/22 08:50:32;;;;;;;30.17;8.07;;;29.20;52.70;;;;;;5012532;28;20233;-72
2023/06/22 08:53:00;;;;;;;47.73;9.37;;;29.20;52.70;;;;;;5028019;28;20205;-71
2023/06/22 08:55:28;;;;;;;33.23;7.93;;;29.20;52.70;;;;;;5013043;28;20213;-65
2023/06/22 08:57:54;;;;;;;54.20;9.93;;;29.30;52.70;;;;;;5005962;28;20290;-75
2023/06/22 09:00:21;;;;;;;28.77;7.53;;;29.30;52.70;;;;;;5033836;28;20208;-69
2023/06/22 09:02:49;;;;;;;29.77;7.83;;;29.30;52.80;;;;;;5037802;28;20201;-71
2023/06/22 09:05:17;;;;;;;40.60;8.90;;;29.30;52.80;;;;;;5020187;28;20262;-67
2023/06/22 09:07:44;;;;;;;28.97;7.97;;;29.30;52.80;;;;;;5022755;28;20295;-63
2023/06/22 09:10:12;;;;;;;43.33;9.73;;;29.30;52.80;;;;;;5034079;28;20258;-69
2023/06/22 09:12:40;;;;;;;25.80;7.23;;;29.30;52.80;;;;;;5024373;28;20197;-70
2023/06/22 09:15:08;;;;;;;32.28;8.30;;;29.30;52.80;;;;;;5034660;28;20441;-70
2023/06/22 09:17:36;;;;;;;31.87;8.17;;;29.20;53.30;;;;;;5013717;28;20228;-72
2023/06/22 09:20:05;;;;;;;34.27;7.97;;;29.20;53.30;;;;;;5028942;28;20669;-73
2023/06/22 09:22:33;;;;;;;37.87;8.70;;;29.30;53.10;;;;;;5021984;28;21071;-75
2023/06/22 09:25:00;;;;;;;55.97;10.33;;;29.40;53.00;;;;;;5025379;28;20624;-74
2023/06/22 09:27:29;;;;;;;39.07;8.27;;;29.40;52.90;;;;;;5027663;28;20684;-68
2023/06/22 09:29:58;;;;;;;63.63;10.40;;;29.40;52.90;;;;;;5015897;28;20252;-70
2023/06/22 09:32:25;;;;;;;52.07;9.47;;;29.40;52.80;;;;;;5022674;28;20188;-69
2023/06/22 09:34:51;;;;;;;28.87;7.00;;;29.40;52.80;;;;;;5021622;28;20201;-66
2023/06/22 09:37:18;;;;;;;32.57;7.47;;;29.40;52.80;;;;;;5018178;28;20686;-65
2023/06/22 09:39:45;;;;;;;33.43;7.67;;;29.40;52.80;;;;;;5012507;28;20209;-60
2023/06/22 09:42:13;;;;;;;31.63;7.53;;;29.40;52.80;;;;;;5024538;28;20204;-67
2023/06/22 09:44:41;;;;;;;27.50;7.47;;;29.50;52.80;;;;;;5022748;28;20287;-60
2023/06/22 09:47:08;;;;;;;50.50;8.93;;;29.40;52.70;;;;;;5031935;28;20232;-59
2023/06/22 09:49:35;;;;;;;50.20;8.43;;;29.40;52.70;;;;;;5004558;28;20212;-59
2023/06/22 09:52:02;;;;;;;47.23;8.20;;;29.40;52.70;;;;;;5016951;28;20197;-63
2023/06/22 09:54:29;;;;;;;23.50;5.87;;;29.40;52.70;;;;;;5019164;28;20201;-59
2023/06/22 09:56:55;;;;;;;29.87;6.87;;;29.50;52.80;;;;;;5013743;28;20220;-59
2023/06/22 09:59:22;;;;;;;37.13;7.43;;;29.40;52.70;;;;;;5015683;28;20205;-61
2023/06/22 10:01:51;;;;;;;32.63;8.77;;;29.40;52.80;;;;;;5019176;28;20210;-64
2023/06/22 10:04:17;;;;;;;33.60;8.33;;;29.40;53.00;;;;;;5042709;28;20536;-64
2023/06/22 10:06:44;;;;;;;33.37;8.93;;;29.40;53.00;;;;;;5019457;28;20220;-60
2023/06/22 10:09:11;;;;;;;31.23;8.43;;;29.50;53.10;;;;;;5027820;28;20201;-60
2023/06/22 10:11:38;;;;;;;40.50;9.47;;;29.40;53.10;;;;;;5020730;28;20232;-66
2023/06/22 10:14:05;;;;;;;32.87;8.53;;;29.40;53.10;;;;;;5015508;28;20209;-63
2023/06/22 10:16:32;;;;;;;27.83;7.57;;;29.40;53.20;;;;;;5022885;28;20196;-64
2023/06/22 10:19:00;;;;;;;34.50;9.93;;;29.50;53.20;;;;;;5033141;28;20648;-61
2023/06/22 10:21:28;;;;;;;47.53;10.40;;;29.50;53.50;;;;;;5023601;28;20200;-61
2023/06/22 10:23:55;;;;;;;30.70;8.67;;;29.40;53.40;;;;;;5027535;28;20225;-66
2023/06/22 10:26:22;;;;;;;35.00;9.13;;;29.50;53.40;;;;;;5028798;28;20542;-68
2023/06/22 10:28:48;;;;;;;33.33;9.07;;;29.50;53.30;;;;;;5031524;28;20212;-65
2023/06/22 10:31:16;;;;;;;35.57;9.07;;;29.50;53.30;;;;;;5037564;28;20238;-67
2023/06/22 10:33:43;;;;;;;23.17;7.90;;;29.50;53.30;;;;;;5048561;28;20196;-70
2023/06/22 10:36:12;;;;;;;26.93;8.40;;;29.50;53.40;;;;;;5051486;28;20241;-60
2023/06/22 10:38:39;;;;;;;32.50;9.60;;;29.50;53.40;;;;;;5051380;28;20278;-63
2023/06/22 10:41:06;;;;;;;30.20;8.83;;;29.40;53.40;;;;;;5041609;28;20204;-59
2023/06/22 10:43:33;;;;;;;27.20;8.23;;;29.50;53.50;;;;;;5047900;28;20809;-59
2023/06/22 10:46:00;;;;;;;57.67;11.10;;;29.50;53.50;;;;;;5042517;28;20200;-62
2023/06/22 10:48:26;;;;;;;26.17;8.47;;;29.50;53.50;;;;;;5046133;28;20234;-64
2023/06/22 10:50:54;;;;;;;32.40;8.80;;;29.50;53.50;;;;;;5050777;28;20988;-59
2023/06/22 10:53:22;;;;;;;28.77;8.50;;;29.50;53.50;;;;;;5045858;28;20287;-60
2023/06/22 10:55:49;;;;;;;32.47;8.80;;;29.50;53.50;;;;;;5048513;28;20213;-59
2023/06/22 10:58:16;;;;;;;30.80;8.27;;;29.50;53.50;;;;;;5022001;28;20202;-59
2023/06/22 11:00:43;;;;;;;41.93;9.03;;;29.50;53.50;;;;;;5017333;28;20951;-59
2023/06/22 11:03:10;;;;;;;31.20;8.33;;;29.50;53.50;;;;;;5018359;28;21123;-60
2023/06/22 11:05:36;;;;;;;37.50;9.00;;;29.60;53.50;;;;;;5012288;28;20209;-59
2023/06/22 11:08:03;;;;;;;29.23;8.10;;;29.50;53.50;;;;;;5033016;28;20196;-59
2023/06/22 11:10:32;;;;;;;36.97;9.07;;;29.50;53.40;;;;;;5021103;28;20228;-64
2023/06/22 11:12:58;;;;;;;73.47;11.70;;;29.50;53.30;;;;;;5031629;28;20200;-60
2023/06/22 11:15:25;;;;;;;34.30;8.47;;;29.60;53.30;;;;;;5041328;28;20195;-60
2023/06/22 11:17:52;;;;;;;47.87;9.43;;;29.60;53.40;;;;;;5031898;28;20210;-64
2023/06/22 11:20:19;;;;;;;49.97;10.23;;;29.60;53.30;;;;;;5017693;28;20212;-67
2023/06/22 11:22:46;;;;;;;29.07;8.30;;;29.50;53.30;;;;;;5024565;28;20217;-66
2023/06/22 11:25:13;;;;;;;31.57;8.47;;;29.50;53.30;;;;;;5040236;28;20207;-66
2023/06/22 11:27:41;;;;;;;33.87;9.03;;;29.50;53.30;;;;;;5035476;28;20204;-62
2023/06/22 11:30:09;;;;;;;39.70;9.50;;;29.50;53.30;;;;;;5026030;28;20200;-71
2023/06/22 11:32:36;;;;;;;52.17;10.43;;;29.50;53.30;;;;;;5035758;28;20197;-71
2023/06/22 11:35:03;;;;;;;35.70;8.97;;;29.50;53.20;;;;;;5013635;28;20204;-65
2023/06/22 11:37:30;;;;;;;34.10;8.83;;;29.50;53.30;;;;;;5022188;28;20275;-67
2023/06/22 11:39:58;;;;;;;33.97;9.20;;;29.50;53.20;;;;;;5025180;28;20209;-63
2023/06/22 11:42:25;;;;;;;33.50;9.03;;;29.50;53.20;;;;;;5017164;28;20280;-69
2023/06/22 11:44:53;;;;;;;28.97;8.37;;;29.50;53.20;;;;;;5024770;28;20209;-69
2023/06/22 11:47:20;;;;;;;32.17;8.47;;;29.50;53.30;;;;;;5017373;28;20897;-71
2023/06/22 11:49:47;;;;;;;36.03;8.53;;;29.50;53.30;;;;;;5023013;28;20657;-68
2023/06/22 11:52:14;;;;;;;35.63;9.07;;;29.50;53.30;;;;;;5034295;28;20212;-66
2023/06/22 11:54:40;;;;;;;49.47;10.50;;;29.50;53.30;;;;;;5043679;28;20202;-71
2023/06/22 11:57:08;;;;;;;31.33;8.87;;;29.50;53.30;;;;;;5040248;28;20205;-67
2023/06/22 11:59:34;;;;;;;32.87;8.73;;;29.40;53.20;;;;;;5030338;28;20689;-66
2023/06/22 12:02:04;;;;;;;46.03;9.80;;;29.40;53.20;;;;;;5029241;28;20205;-67
2023/06/22 12:04:30;;;;;;;22.30;7.03;;;29.40;53.20;;;;;;5025418;28;20199;-64
2023/06/22 12:06:58;;;;;;;28.27;7.30;;;29.40;53.20;;;;;;5015797;28;20205;-66
2023/06/22 12:09:25;;;;;;;31.10;7.73;;;29.40;53.20;;;;;;5017444;28;20205;-65
2023/06/22 12:11:52;;;;;;;35.93;8.23;;;29.40;53.30;;;;;;5012068;28;20255;-61
2023/06/22 12:14:18;;;;;;;28.23;6.93;;;29.40;53.30;;;;;;5016712;28;20203;-64
2023/06/22 12:16:45;;;;;;;32.90;7.23;;;29.40;53.30;;;;;;5028720;28;20200;-60
2023/06/22 12:19:13;;;;;;;34.67;7.13;;;29.40;53.30;;;;;;5018191;28;20225;-61
2023/06/22 12:21:41;;;;;;;30.83;6.73;;;29.40;53.30;;;;;;5009887;28;20208;-66
2023/06/22 12:24:08;;;;;;;34.33;7.17;;;29.40;53.30;;;;;;5010624;28;20202;-65
2023/06/22 12:26:34;;;;;;;26.70;6.13;;;29.40;53.40;;;;;;5022412;28;20205;-59
2023/06/22 12:29:01;;;;;;;23.57;5.83;;;29.40;53.40;;;;;;5028648;28;20197;-64
2023/06/22 12:31:28;;;;;;;26.77;6.00;;;29.40;53.40;;;;;;5028510;28;20240;-64
2023/06/22 12:33:55;;;;;;;29.97;6.40;;;29.30;53.40;;;;;;5020391;28;20201;-64
2023/06/22 12:36:24;;;;;;;23.57;5.60;;;29.30;53.30;;;;;;5009259;28;20210;-66
2023/06/22 12:38:51;;;;;;;27.33;6.87;;;29.40;53.40;;;;;;5012142;28;20232;-60